createdAt,value
2023-06-24T00:03:54.997Z,100961.53
2023-06-24T00:08:50.042Z,100935.38
2023-06-24T00:13:43.491Z,100926.72
2023-06-24T00:18:37.192Z,100927.34
2023-06-24T00:23:35.264Z,100927.34
2023-06-24T00:28:29.951Z,100922.16
2023-06-24T00:33:23.112Z,100929.13
2023-06-24T00:38:17.396Z,100914.34
2023-06-24T00:43:11.180Z,100912.06
2023-06-24T00:48:06.309Z,100912.03
2023-06-24T00:53:00.004Z,100902.75
2023-06-24T00:57:55.444Z,100911.19
2023-06-24T01:02:50.351Z,100906.44
2023-06-24T01:07:45.721Z,100881.69
2023-06-24T01:12:42.578Z,100893.38
2023-06-24T01:17:40.094Z,100910.91
2023-06-24T01:23:00.585Z,100908.38
2023-06-24T01:28:09.419Z,100913.09
2023-06-24T01:33:09.973Z,100904.63
2023-06-24T01:38:09.818Z,100893.50
2023-06-24T01:43:05.728Z,100908.06
2023-06-24T01:48:03.198Z,100897.81
2023-06-24T01:52:59.551Z,100858.84
2023-06-24T01:57:54.399Z,100915.69
2023-06-24T02:02:49.166Z,100906.41
2023-06-24T02:07:44.573Z,100908.84
2023-06-24T02:12:40.973Z,100919.72
2023-06-24T02:17:34.137Z,100936.53
2023-06-24T02:22:27.789Z,100870.78
2023-06-24T02:27:21.692Z,100938.75
2023-06-24T02:32:16.858Z,100952.59
2023-06-24T02:37:10.095Z,100958.53
2023-06-24T02:42:03.309Z,100968.53
2023-06-24T02:46:58.053Z,100987.63
2023-06-24T02:51:52.903Z,100983.03
2023-06-24T02:56:46.660Z,100994.25
2023-06-24T03:01:48.116Z,100989.50
2023-06-24T03:06:42.814Z,101011.03
2023-06-24T03:11:44.200Z,101026.03
2023-06-24T03:16:40.848Z,101009.41
2023-06-24T03:21:40.489Z,101021.06
2023-06-24T03:26:39.383Z,101040.63
2023-06-24T03:31:36.109Z,101043.47
2023-06-24T03:36:30.181Z,101045.53
2023-06-24T03:41:23.578Z,101038.97
2023-06-24T03:46:16.958Z,101002.81
2023-06-24T03:51:11.601Z,101058.63
2023-06-24T03:56:05.874Z,101065.47
2023-06-24T04:01:01.370Z,101047.59
2023-06-24T04:05:56.189Z,101057.81
2023-06-24T04:10:50.888Z,101049.06
2023-06-24T04:15:44.138Z,101045.22
2023-06-24T04:20:39.981Z,101043.16
2023-06-24T04:25:33.418Z,101055.66
2023-06-24T04:30:28.438Z,101049.41
2023-06-24T04:35:21.755Z,101041.22
2023-06-24T04:40:15.241Z,101047.44
2023-06-24T04:45:09.383Z,101045.44
2023-06-24T04:50:04.129Z,101051.56
2023-06-24T04:54:57.569Z,101034.72
2023-06-24T04:59:50.801Z,101042.59
2023-06-24T05:04:44.151Z,101056.22
2023-06-24T05:09:39.091Z,101056.31
2023-06-24T05:14:33.978Z,101027.31
2023-06-24T05:19:27.181Z,100994.03
2023-06-24T05:24:20.491Z,101043.19
2023-06-24T05:29:15.144Z,101045.72
2023-06-24T05:34:08.846Z,101051.53
2023-06-24T05:39:02.151Z,101049.91
2023-06-24T05:44:06.642Z,101051.53
2023-06-24T05:49:01.470Z,101045.41
2023-06-24T05:53:54.759Z,101048.22
2023-06-24T05:58:47.960Z,101020.63
2023-06-24T06:03:41.164Z,101039.69
2023-06-24T06:08:35.918Z,101018.44
2023-06-24T06:13:29.071Z,101031.53
2023-06-24T06:18:22.200Z,101043.16
2023-06-24T06:23:15.393Z,101047.13
2023-06-24T06:28:09.967Z,101056.91
2023-06-24T06:33:03.331Z,101067.13
2023-06-24T06:37:57.305Z,101072.59
2023-06-24T06:42:51.217Z,101074.94
2023-06-24T06:47:45.834Z,101075.47
2023-06-24T06:52:39.590Z,101064.91
2023-06-24T06:57:33.025Z,101071.59
2023-06-24T07:02:26.338Z,101067.63
2023-06-24T07:07:21.085Z,101072.25
2023-06-24T07:12:15.661Z,101061.84
2023-06-24T07:17:10.039Z,101060.00
2023-06-24T07:22:03.312Z,101064.50
2023-06-24T07:26:57.988Z,101058.78
2023-06-24T07:31:51.161Z,101048.75
2023-06-24T07:36:44.315Z,101040.38
2023-06-24T07:41:37.565Z,101016.28
2023-06-24T07:46:32.610Z,101026.69
2023-06-24T07:51:27.688Z,100997.16
2023-06-24T07:56:20.938Z,101010.09
2023-06-24T08:01:14.102Z,100988.97
2023-06-24T08:06:08.819Z,101017.63
2023-06-24T08:11:02.014Z,101020.59
2023-06-24T08:15:55.268Z,100944.47
2023-06-24T08:20:49.647Z,101024.13
2023-06-24T08:25:44.770Z,101025.44
2023-06-24T08:30:38.049Z,101019.97
2023-06-24T08:35:31.294Z,101024.50
2023-06-24T08:40:24.418Z,101010.97
2023-06-24T08:45:19.133Z,101024.00
2023-06-24T08:50:14.783Z,100994.44
2023-06-24T08:55:11.299Z,100988.09
2023-06-24T09:00:05.657Z,100973.13
2023-06-24T09:05:00.307Z,100940.03
2023-06-24T09:09:53.457Z,100990.19
2023-06-24T09:14:50.881Z,100980.66
2023-06-24T09:19:44.124Z,100983.03
2023-06-24T09:24:39.597Z,100993.81
2023-06-24T09:29:35.672Z,100990.72
2023-06-24T09:34:30.750Z,100987.19
2023-06-24T09:39:30.598Z,100946.22
2023-06-24T09:44:26.252Z,100991.22
2023-06-24T09:49:19.682Z,100975.91
2023-06-24T09:54:14.816Z,100983.47
2023-06-24T09:59:08.949Z,100973.19
2023-06-24T10:04:04.788Z,100982.78
2023-06-24T10:08:59.916Z,100985.13
2023-06-24T10:13:53.544Z,100982.00
2023-06-24T10:18:47.563Z,100973.56
2023-06-24T10:23:53.837Z,100968.38
2023-06-24T10:29:15.334Z,100975.38
2023-06-24T10:34:25.027Z,100958.06
2023-06-24T10:39:53.490Z,100956.50
2023-06-24T10:44:51.854Z,100963.22
2023-06-24T10:49:45.232Z,100962.94
2023-06-24T10:54:39.787Z,100894.34
2023-06-24T10:59:36.692Z,100954.88
2023-06-24T11:04:31.373Z,100934.19
2023-06-24T11:09:24.632Z,100945.59
2023-06-24T11:14:18.302Z,100938.66
2023-06-24T11:19:11.603Z,100881.97
2023-06-24T11:24:07.686Z,100917.84
2023-06-24T11:29:00.877Z,100929.31
2023-06-24T11:33:54.436Z,100931.41
2023-06-24T11:38:48.232Z,100921.25
2023-06-24T11:43:47.257Z,100913.44
2023-06-24T11:48:42.413Z,100903.56
2023-06-24T11:53:44.389Z,100898.47
2023-06-24T11:58:37.974Z,100899.78
2023-06-24T12:03:33.958Z,100887.66
2023-06-24T12:08:29.070Z,100890.41
2023-06-24T12:13:24.391Z,100872.19
2023-06-24T12:18:17.532Z,100863.31
2023-06-24T12:23:12.125Z,100860.22
2023-06-24T12:28:05.615Z,100852.38
2023-06-24T12:32:59.109Z,100843.50
2023-06-24T12:37:52.400Z,100838.09
2023-06-24T12:42:47.018Z,100843.59
2023-06-24T12:47:40.164Z,100823.25
2023-06-24T12:52:33.309Z,100826.63
2023-06-24T12:57:26.581Z,100827.97
2023-06-24T13:02:21.114Z,100819.94
2023-06-24T13:07:16.691Z,100816.16
2023-06-24T13:12:10.831Z,100768.38
2023-06-24T13:17:04.118Z,100791.75
2023-06-24T13:21:58.745Z,100804.66
2023-06-24T13:26:52.017Z,100807.41
2023-06-24T13:31:45.249Z,100811.19
2023-06-24T13:36:40.190Z,100801.28
2023-06-24T13:41:35.415Z,100797.25
2023-06-24T13:46:29.526Z,100802.47
2023-06-24T13:51:23.113Z,100798.50
2023-06-24T13:56:16.393Z,100800.50
2023-06-24T14:01:10.955Z,100768.75
2023-06-24T14:06:04.870Z,100792.31
2023-06-24T14:10:58.161Z,100791.72
2023-06-24T14:15:51.365Z,100788.25
2023-06-24T14:20:46.073Z,100792.69
2023-06-24T14:25:39.573Z,100785.13
2023-06-24T14:30:32.787Z,100792.00
2023-06-24T14:35:26.114Z,100798.53
2023-06-24T14:40:20.722Z,100751.47
2023-06-24T14:45:13.830Z,100686.13
2023-06-24T14:50:07.923Z,100774.44
2023-06-24T14:55:01.136Z,100768.69
2023-06-24T14:59:55.778Z,100778.53
2023-06-24T15:04:50.039Z,100780.50
2023-06-24T15:09:44.454Z,100768.06
2023-06-24T15:14:37.686Z,100784.38
2023-06-24T15:19:32.462Z,100770.81
2023-06-24T15:24:25.745Z,100768.69
2023-06-24T15:29:19.093Z,100779.81
2023-06-24T15:34:13.106Z,100767.88
2023-06-24T15:39:07.837Z,100769.75
2023-06-24T15:44:00.999Z,100773.53
2023-06-24T15:48:54.227Z,100789.81
2023-06-24T15:53:47.816Z,100778.94
2023-06-24T15:58:42.603Z,100769.97
2023-06-24T16:03:36.181Z,100748.53
2023-06-24T16:08:29.589Z,100766.41
2023-06-24T16:13:23.065Z,100757.69
2023-06-24T16:18:17.679Z,100761.44
2023-06-24T16:23:11.791Z,100765.50
2023-06-24T16:28:06.398Z,100776.78
2023-06-24T16:32:59.614Z,100770.50
2023-06-24T16:37:54.216Z,100782.94
2023-06-24T16:42:47.732Z,100787.13
2023-06-24T16:47:41.038Z,100794.16
2023-06-24T16:52:34.855Z,100786.47
2023-06-24T16:57:29.629Z,100776.28
2023-06-24T17:02:22.987Z,100795.53
2023-06-24T17:07:16.283Z,100744.88
2023-06-24T17:12:10.123Z,100790.97
2023-06-24T17:17:04.894Z,100820.38
2023-06-24T17:21:58.036Z,100815.09
2023-06-24T17:26:51.258Z,100821.47
2023-06-24T17:31:44.818Z,100822.44
2023-06-24T17:36:39.366Z,100822.78
2023-06-24T17:41:35.072Z,100815.09
2023-06-24T17:46:28.340Z,100831.75
2023-06-24T17:51:21.613Z,100815.25
2023-06-24T17:56:16.217Z,100839.50
2023-06-24T18:01:15.676Z,100822.69
2023-06-24T18:06:08.871Z,100848.09
2023-06-24T18:11:02.286Z,100855.19
2023-06-24T18:15:57.240Z,100854.47
2023-06-24T18:20:50.434Z,100800.13
2023-06-24T18:25:43.626Z,100891.34
2023-06-24T18:30:37.100Z,100758.31
2023-06-24T18:35:31.933Z,100930.31
2023-06-24T18:40:25.066Z,100936.34
2023-06-24T18:45:18.704Z,100930.22
2023-06-24T18:50:12.393Z,100880.88
2023-06-24T18:55:07.642Z,100946.75
2023-06-24T19:00:00.814Z,100941.22
2023-06-24T19:04:54.117Z,100935.69
2023-06-24T19:09:47.215Z,100938.41
2023-06-24T19:14:42.622Z,100969.59
2023-06-24T19:19:35.870Z,101004.28
2023-06-24T19:24:29.018Z,100978.50
2023-06-24T19:29:22.350Z,100979.84
2023-06-24T19:34:18.497Z,100945.22
2023-06-24T19:39:11.799Z,100954.56
2023-06-24T19:44:06.961Z,100959.88
2023-06-24T19:49:00.182Z,100945.91
2023-06-24T19:53:54.834Z,100965.84
2023-06-24T19:58:48.015Z,100970.34
2023-06-24T20:03:41.328Z,100978.38
2023-06-24T20:08:34.688Z,100961.19
2023-06-24T20:13:29.503Z,100957.16
2023-06-24T20:18:24.745Z,100953.13
2023-06-24T20:23:18.127Z,100927.06
2023-06-24T20:28:11.565Z,100967.59
2023-06-24T20:33:06.276Z,100954.44
2023-06-24T20:37:59.550Z,100958.63
2023-06-24T20:42:52.884Z,100975.84
2023-06-24T20:47:46.290Z,100974.00
2023-06-24T20:52:41.009Z,100955.75
2023-06-24T20:57:34.758Z,100940.34
2023-06-24T21:02:28.210Z,100946.53
2023-06-24T21:07:21.549Z,100984.63
2023-06-24T21:12:16.313Z,100995.34
2023-06-24T21:17:09.615Z,100971.72
2023-06-24T21:22:03.234Z,100988.56
2023-06-24T21:26:56.503Z,100955.06
2023-06-24T21:31:51.148Z,100977.50
2023-06-24T21:36:44.365Z,100985.91
2023-06-24T21:41:37.621Z,100976.28
2023-06-24T21:46:30.873Z,100961.03
2023-06-24T21:51:25.589Z,100960.44
2023-06-24T21:56:18.945Z,100960.78
2023-06-24T22:01:12.263Z,100965.91
2023-06-24T22:06:05.765Z,100950.28
2023-06-24T22:11:00.447Z,100936.91
2023-06-24T22:15:53.640Z,100927.63
2023-06-24T22:20:46.798Z,100925.56
2023-06-24T22:25:40.178Z,100911.34
2023-06-24T22:30:35.212Z,100813.66
2023-06-24T22:35:28.699Z,100874.75
2023-06-24T22:40:21.966Z,100898.78
2023-06-24T22:45:15.109Z,100893.84
2023-06-24T22:50:10.576Z,100855.38
2023-06-24T22:55:03.823Z,100880.47
2023-06-24T22:59:57.119Z,100874.53
2023-06-24T23:04:50.861Z,100873.13
2023-06-24T23:09:45.985Z,100879.50
2023-06-24T23:14:39.938Z,100820.69
2023-06-24T23:19:34.162Z,100868.00
2023-06-24T23:24:30.389Z,100863.88
2023-06-24T23:29:27.871Z,100857.16
2023-06-24T23:34:21.541Z,100864.78
2023-06-24T23:39:15.465Z,100850.81
2023-06-24T23:44:09.369Z,100765.91
2023-06-24T23:49:04.086Z,100826.13
2023-06-24T23:53:57.346Z,100837.03
2023-06-24T23:58:50.547Z,100832.50
